Time;durP1;ratioP1;P1;durP2;ratioP2;P2;SDS_P1;SDS_P2;PMS_P1;PMS_P2;Temp;Humidity;BMP_temperature;BMP_pressure;BME280_temperature;BME280_humidity;BME280_pressure;Samples;Min_cycle;Max_cycle;Signal;HPM_P1;HPM_P2
2023/07/04 00:01:47;;;;;;;8.88;5.25;;;;;;;;;;5057712;28;20777;-80
2023/07/04 00:04:13;;;;;;;10.95;5.38;;;;;;;;;;5030351;28;20732;-82
2023/07/04 00:06:41;;;;;;;8.13;5.53;;;;;;;;;;5045081;28;20239;-81
2023/07/04 00:09:10;;;;;;;10.53;5.97;;;;;;;;;;5032565;28;20242;-81
2023/07/04 00:11:35;;;;;;;8.00;5.20;;;;;;;;;;5036398;28;20215;-81
2023/07/04 00:14:01;;;;;;;9.83;5.60;;;;;;;;;;5012500;28;20226;-82
2023/07/04 00:16:26;;;;;;;7.40;5.70;;;;;;;;;;5017871;28;20280;-82
2023/07/04 00:18:52;;;;;;;10.13;5.60;;;;;;;;;;5030147;28;20302;-83
2023/07/04 00:21:18;;;;;;;8.52;6.22;;;;;;;;;;5017494;28;20268;-83
2023/07/04 00:23:45;;;;;;;11.13;6.37;;;;;;;;;;5019955;28;20235;-84
2023/07/04 00:26:14;;;;;;;10.60;6.60;;;;;;;;;;5018812;28;20228;-84
2023/07/04 00:28:45;;;;;;;12.20;6.37;;;;;;;;;;5033338;28;20216;-82
2023/07/04 00:31:14;;;;;;;9.23;6.17;;;;;;;;;;5030073;28;20246;-80
2023/07/04 00:33:39;;;;;;;10.13;6.20;;;;;;;;;;5017930;28;20283;-80
2023/07/04 00:36:13;;;;;;;10.17;6.73;;;;;;;;;;5049138;28;20295;-83
2023/07/04 00:38:41;;;;;;;15.63;7.27;;;;;;;;;;5018907;28;20224;-84
2023/07/04 00:41:13;;;;;;;11.63;7.50;;;;;;;;;;5023447;28;20708;-82
2023/07/04 00:44:01;;;;;;;13.67;7.73;;;;;;;;;;5032191;28;20196;-83
2023/07/04 00:46:39;;;;;;;10.50;7.10;;;;;;;;;;5053292;28;20256;-81
2023/07/04 00:49:22;;;;;;;16.47;7.70;;;;;;;;;;5063501;28;20436;-82
2023/07/04 00:52:01;;;;;;;9.57;6.87;;;;;;;;;;5044338;28;20263;-80
2023/07/04 00:54:40;;;;;;;12.40;7.57;;;;;;;;;;5018553;28;20232;-83
2023/07/04 00:57:06;;;;;;;15.53;7.27;;;;;;;;;;5034626;28;20223;-82
2023/07/04 00:59:43;;;;;;;13.33;7.47;;;;;;;;;;5027067;28;20220;-81
2023/07/04 01:02:12;;;;;;;10.13;7.20;;;;;;;;;;5029677;28;20250;-83
2023/07/04 01:04:38;;;;;;;14.77;7.57;;;;;;;;;;5037132;28;20684;-81
2023/07/04 01:07:27;;;;;;;14.10;7.07;;;;;;;;;;5029883;28;20244;-82
2023/07/04 01:10:00;;;;;;;13.43;6.27;;;;;;;;;;5060169;28;20216;-83
2023/07/04 01:12:28;;;;;;;12.13;6.33;;;;;;;;;;5031099;28;20239;-83
2023/07/04 01:14:54;;;;;;;7.60;6.03;;;;;;;;;;5022696;28;20230;-82
2023/07/04 01:17:21;;;;;;;10.13;6.63;;;;;;;;;;5011901;28;20703;-83
2023/07/04 01:19:47;;;;;;;11.27;6.67;;;;;;;;;;5009342;28;20280;-82
2023/07/04 01:22:19;;;;;;;10.83;6.67;;;;;;;;;;5053307;28;20216;-83
2023/07/04 01:25:01;;;;;;;8.27;6.10;;;;;;;;;;5044111;28;20746;-82
2023/07/04 01:27:27;;;;;;;9.47;6.27;;;;;;;;;;5026209;28;20222;-82
2023/07/04 01:30:04;;;;;;;11.93;5.83;;;;;;;;;;5026555;28;20207;-82
2023/07/04 01:32:34;;;;;;;8.73;6.57;;;;;;;;;;5063631;28;20230;-80
2023/07/04 01:35:00;;;;;;;12.98;6.30;;;;;;;;;;5030671;28;20220;-81
2023/07/04 01:37:29;;;;;;;10.83;6.30;;;;;;;;;;5019883;28;20223;-83
2023/07/04 01:39:58;;;;;;;10.50;6.63;;;;;;;;;;5021170;28;20300;-83
2023/07/04 01:42:31;;;;;;;10.23;5.73;;;;;;;;;;5016755;28;20294;-83
2023/07/04 01:45:01;;;;;;;8.02;5.13;;;;;;;;;;5024903;28;20227;-83
2023/07/04 01:47:28;;;;;;;11.23;6.27;;;;;;;;;;5013602;28;20548;-84
2023/07/04 01:49:54;;;;;;;11.25;5.80;;;;;;;;;;5026194;28;20250;-84
2023/07/04 01:52:19;;;;;;;9.80;6.05;;;;;;;;;;5039204;28;20701;-82
2023/07/04 01:54:45;;;;;;;11.52;5.65;;;;;;;;;;5023359;28;20220;-82
2023/07/04 01:57:10;;;;;;;8.00;5.85;;;;;;;;;;5043731;28;20688;-83
2023/07/04 01:59:36;;;;;;;8.77;5.45;;;;;;;;;;5049707;28;20211;-83
2023/07/04 02:02:02;;;;;;;9.47;6.13;;;;;;;;;;5026048;28;20606;-83
2023/07/04 02:04:28;;;;;;;11.77;5.50;;;;;;;;;;5033689;28;20227;-83
2023/07/04 02:06:55;;;;;;;13.65;5.28;;;;;;;;;;5045541;28;20224;-82
2023/07/04 02:09:26;;;;;;;8.77;5.07;;;;;;;;;;5044859;28;20215;-81
2023/07/04 02:11:51;;;;;;;10.40;5.35;;;;;;;;;;5014145;28;20227;-81
2023/07/04 02:14:22;;;;;;;7.50;4.90;;;;;;;;;;5035401;28;20308;-82
2023/07/04 02:16:49;;;;;;;8.13;4.68;;;;;;;;;;5048689;28;20676;-83
2023/07/04 02:19:20;;;;;;;10.38;5.18;;;;;;;;;;5025548;28;20272;-81
2023/07/04 02:21:46;;;;;;;8.77;4.40;;;;;;;;;;5017709;28;20219;-80
2023/07/04 02:24:13;;;;;;;8.30;4.57;;;;;;;;;;5048918;28;20250;-82
2023/07/04 02:26:39;;;;;;;8.53;4.13;;;;;;;;;;5047695;28;20700;-83
2023/07/04 02:29:05;;;;;;;8.63;4.20;;;;;;;;;;5045582;28;20215;-83
2023/07/04 02:31:30;;;;;;;7.43;4.57;;;;;;;;;;5033988;28;20231;-81
2023/07/04 02:34:00;;;;;;;5.88;3.70;;;;;;;;;;5020362;28;20235;-81
2023/07/04 02:36:26;;;;;;;7.28;3.63;;;;;;;;;;5033000;28;20299;-82
2023/07/04 02:38:54;;;;;;;8.75;3.90;;;;;;;;;;5029884;28;20301;-82
2023/07/04 02:41:21;;;;;;;7.43;3.90;;;;;;;;;;5051426;28;20226;-80
2023/07/04 02:43:50;;;;;;;6.17;3.40;;;;;;;;;;5031110;28;20269;-81
2023/07/04 02:46:17;;;;;;;8.43;3.33;;;;;;;;;;5025779;28;20323;-79
2023/07/04 02:48:45;;;;;;;6.37;3.67;;;;;;;;;;5031902;28;20219;-80
2023/07/04 02:51:11;;;;;;;6.23;3.27;;;;;;;;;;5031968;28;20711;-81
2023/07/04 02:53:36;;;;;;;8.67;3.80;;;;;;;;;;5048263;28;20219;-81
2023/07/04 02:56:02;;;;;;;6.57;3.72;;;;;;;;;;5034122;28;20678;-77
2023/07/04 02:58:30;;;;;;;9.77;3.78;;;;;;;;;;5041728;28;20272;-81
2023/07/04 03:00:57;;;;;;;9.97;4.30;;;;;;;;;;5011931;28;20235;-79
2023/07/04 03:03:24;;;;;;;5.20;3.40;;;;;;;;;;5053394;28;20249;-81
2023/07/04 03:05:51;;;;;;;7.63;3.70;;;;;;;;;;5023453;28;20234;-82
2023/07/04 03:08:18;;;;;;;7.20;3.90;;;;;;;;;;5047333;28;20224;-80
2023/07/04 03:10:47;;;;;;;7.88;4.00;;;;;;;;;;5031838;28;20243;-82
2023/07/04 03:13:15;;;;;;;5.27;3.47;;;;;;;;;;5017960;28;20676;-82
2023/07/04 03:15:41;;;;;;;6.17;3.93;;;;;;;;;;5052526;28;20208;-80
2023/07/04 03:18:06;;;;;;;7.27;4.10;;;;;;;;;;5033855;28;20218;-81
2023/07/04 03:20:34;;;;;;;6.93;4.17;;;;;;;;;;5022807;28;20974;-80
2023/07/04 03:23:01;;;;;;;8.40;4.00;;;;;;;;;;5038577;28;20228;-83
2023/07/04 03:25:29;;;;;;;5.63;3.43;;;;;;;;;;5032283;28;20286;-82
2023/07/04 03:27:56;;;;;;;6.60;3.90;;;;;;;;;;5013048;28;20704;-82
2023/07/04 03:30:25;;;;;;;5.90;3.33;;;;;;;;;;5063679;28;20216;-82
2023/07/04 03:32:57;;;;;;;6.70;3.57;;;;;;;;;;5015135;28;20224;-81
2023/07/04 03:35:24;;;;;;;7.80;3.50;;;;;;;;;;5057551;28;20691;-83
2023/07/04 03:37:52;;;;;;;4.80;3.30;;;;;;;;;;5021595;28;20223;-82
2023/07/04 03:40:17;;;;;;;7.23;3.83;;;;;;;;;;5047552;28;20294;-81
2023/07/04 03:42:43;;;;;;;7.00;3.50;;;;;;;;;;5030133;28;20208;-82
2023/07/04 03:45:09;;;;;;;6.33;3.00;;;;;;;;;;5017930;28;20257;-79
2023/07/04 03:47:34;;;;;;;7.53;2.93;;;;;;;;;;5035965;28;20228;-82
2023/07/04 03:50:02;;;;;;;8.13;3.37;;;;;;;;;;5021690;28;20215;-80
2023/07/04 03:52:28;;;;;;;8.07;3.40;;;;;;;;;;5022331;28;20222;-82
2023/07/04 03:54:56;;;;;;;9.40;3.50;;;;;;;;;;5028618;28;20299;-80
2023/07/04 03:57:24;;;;;;;6.33;2.97;;;;;;;;;;5043481;28;20296;-82
2023/07/04 03:59:51;;;;;;;6.83;3.20;;;;;;;;;;5019478;28;20310;-82
2023/07/04 04:02:19;;;;;;;4.63;3.10;;;;;;;;;;5045796;28;20224;-81
2023/07/04 04:04:46;;;;;;;8.30;3.37;;;;;;;;;;5035079;28;20227;-80
2023/07/04 04:07:12;;;;;;;6.57;3.00;;;;;;;;;;5012291;28;20228;-81
2023/07/04 04:09:37;;;;;;;6.87;3.10;;;;;;;;;;5040048;28;20311;-83
2023/07/04 04:12:04;;;;;;;5.53;3.10;;;;;;;;;;5017164;28;20222;-81
2023/07/04 04:14:35;;;;;;;6.57;3.43;;;;;;;;;;5045388;28;20226;-82
2023/07/04 04:17:00;;;;;;;5.63;2.83;;;;;;;;;;5045341;28;20215;-81
2023/07/04 04:19:28;;;;;;;4.83;2.97;;;;;;;;;;5016451;28;20220;-81
2023/07/04 04:21:54;;;;;;;6.07;2.90;;;;;;;;;;5064287;28;20301;-81
2023/07/04 04:24:20;;;;;;;4.80;2.87;;;;;;;;;;5045910;28;20988;-82
2023/07/04 04:26:47;;;;;;;7.23;3.00;;;;;;;;;;5027116;28;20224;-82
2023/07/04 04:29:13;;;;;;;10.40;3.13;;;;;;;;;;5044544;28;20212;-81
2023/07/04 04:31:39;;;;;;;6.67;3.10;;;;;;;;;;5050042;28;20219;-81
2023/07/04 04:34:07;;;;;;;7.07;3.03;;;;;;;;;;5033534;28;20265;-82
2023/07/04 04:36:32;;;;;;;5.03;2.58;;;;;;;;;;5016850;28;20287;-82
2023/07/04 04:39:01;;;;;;;4.73;2.70;;;;;;;;;;5001897;28;20675;-79
2023/07/04 04:41:27;;;;;;;7.43;3.00;;;;;;;;;;5042432;28;20222;-80
2023/07/04 04:43:59;;;;;;;7.77;2.90;;;;;;;;;;5029115;28;20216;-81
2023/07/04 04:46:24;;;;;;;5.77;2.83;;;;;;;;;;5042361;28;20236;-81
2023/07/04 04:48:50;;;;;;;3.78;2.65;;;;;;;;;;5014734;28;20288;-80
2023/07/04 04:51:16;;;;;;;6.32;3.03;;;;;;;;;;5037783;28;20224;-80
2023/07/04 04:53:45;;;;;;;5.63;2.90;;;;;;;;;;5030480;28;20699;-83
2023/07/04 04:56:11;;;;;;;7.57;2.63;;;;;;;;;;5042199;28;20227;-81
2023/07/04 04:58:37;;;;;;;4.10;2.80;;;;;;;;;;5028728;28;20223;-82
2023/07/04 05:01:14;;;;;;;6.47;2.80;;;;;;;;;;5015096;28;20668;-82
2023/07/04 05:03:41;;;;;;;4.23;2.63;;;;;;;;;;5015307;28;20228;-80
2023/07/04 05:06:09;;;;;;;6.33;2.67;;;;;;;;;;5031378;28;20716;-82
2023/07/04 05:08:35;;;;;;;6.90;2.70;;;;;;;;;;5016615;28;20231;-83
2023/07/04 05:11:10;;;;;;;5.97;2.70;;;;;;;;;;5024717;28;20227;-78
2023/07/04 05:13:37;;;;;;;5.67;2.27;;;;;;;;;;5045878;28;20311;-83
2023/07/04 05:16:04;;;;;;;5.47;2.60;;;;;;;;;;5009364;28;20222;-81
2023/07/04 05:18:32;;;;;;;7.32;2.47;;;;;;;;;;5043591;28;20232;-82
2023/07/04 05:21:03;;;;;;;7.10;2.70;;;;;;;;;;5045020;28;20271;-82
2023/07/04 05:23:37;;;;;;;6.72;2.63;;;;;;;;;;5077935;28;20223;-84
2023/07/04 05:26:07;;;;;;;4.78;2.60;;;;;;;;;;5068539;28;20226;-81
2023/07/04 05:28:33;;;;;;;4.33;2.20;;;;;;;;;;5035566;28;20227;-81
2023/07/04 05:31:02;;;;;;;5.75;2.67;;;;;;;;;;5053648;28;20214;-80
2023/07/04 05:33:28;;;;;;;5.43;2.50;;;;;;;;;;5061174;28;20238;-83
2023/07/04 05:36:10;;;;;;;5.13;2.55;;;;;;;;;;5045437;28;20326;-81
2023/07/04 05:38:36;;;;;;;5.65;2.70;;;;;;;;;;5053251;28;20763;-84
2023/07/04 05:41:01;;;;;;;5.38;2.38;;;;;;;;;;5036144;28;20223;-80
2023/07/04 05:43:27;;;;;;;3.65;2.22;;;;;;;;;;5050544;28;20227;-81
2023/07/04 05:45:55;;;;;;;5.15;2.35;;;;;;;;;;5048184;28;20309;-80
2023/07/04 05:48:21;;;;;;;4.25;2.38;;;;;;;;;;5054176;28;20245;-84
2023/07/04 05:50:57;;;;;;;6.32;2.58;;;;;;;;;;5029245;28;20879;-80
2023/07/04 05:53:30;;;;;;;4.38;2.28;;;;;;;;;;5037232;28;20253;-83
2023/07/04 05:56:11;;;;;;;6.78;2.22;;;;;;;;;;5055697;28;20233;-83
2023/07/04 05:58:39;;;;;;;4.95;2.42;;;;;;;;;;5074003;28;20227;-77
2023/07/04 06:01:10;;;;;;;9.43;2.63;;;;;;;;;;5043796;28;20215;-81
2023/07/04 06:03:36;;;;;;;5.72;2.60;;;;;;;;;;5071690;28;20237;-82
2023/07/04 06:06:04;;;;;;;5.68;2.85;;;;;;;;;;5064141;28;20227;-81
2023/07/04 06:08:31;;;;;;;4.90;2.40;;;;;;;;;;5063645;28;20628;-85
2023/07/04 06:11:06;;;;;;;3.35;2.30;;;;;;;;;;5039585;28;20219;-83
2023/07/04 06:13:34;;;;;;;4.75;2.40;;;;;;;;;;5066483;28;20306;-82
2023/07/04 06:16:01;;;;;;;7.30;2.42;;;;;;;;;;5015951;28;20239;-82
2023/07/04 06:18:27;;;;;;;9.95;2.60;;;;;;;;;;5052966;28;20238;-80
2023/07/04 06:20:54;;;;;;;6.65;2.80;;;;;;;;;;5028467;28;20219;-81
2023/07/04 06:23:23;;;;;;;4.43;2.45;;;;;;;;;;5002073;28;20696;-81
2023/07/04 06:25:57;;;;;;;8.30;2.70;;;;;;;;;;5028110;28;20277;-82
2023/07/04 06:28:23;;;;;;;6.40;2.63;;;;;;;;;;5057729;28;20657;-80
2023/07/04 06:30:48;;;;;;;5.65;2.28;;;;;;;;;;5015525;28;20224;-80
2023/07/04 06:33:14;;;;;;;5.50;2.35;;;;;;;;;;5037147;28;20243;-79
2023/07/04 06:35:40;;;;;;;6.07;2.25;;;;;;;;;;5046153;28;20231;-78
2023/07/04 06:38:09;;;;;;;5.45;2.35;;;;;;;;;;5027466;28;20212;-81
2023/07/04 06:40:34;;;;;;;6.10;2.30;;;;;;;;;;5043490;28;20278;-78
2023/07/04 06:43:00;;;;;;;4.50;2.47;;;;;;;;;;5050531;28;20224;-78
2023/07/04 06:45:25;;;;;;;5.95;2.60;;;;;;;;;;5049225;28;20231;-84
2023/07/04 06:47:51;;;;;;;3.75;2.42;;;;;;;;;;5045179;28;20224;-83
2023/07/04 06:50:16;;;;;;;4.90;2.45;;;;;;;;;;5036023;28;20226;-80
2023/07/04 06:52:45;;;;;;;5.18;2.35;;;;;;;;;;5037647;28;20228;-82
2023/07/04 06:55:13;;;;;;;4.30;2.20;;;;;;;;;;5033473;28;20658;-82
2023/07/04 06:57:38;;;;;;;5.63;2.60;;;;;;;;;;5041281;28;20215;-84
2023/07/04 07:00:05;;;;;;;4.97;2.17;;;;;;;;;;5032047;28;20242;-84
2023/07/04 07:02:31;;;;;;;4.97;2.33;;;;;;;;;;5052014;28;20251;-83
2023/07/04 07:05:01;;;;;;;5.70;2.80;;;;;;;;;;5025984;28;20227;-82
2023/07/04 07:07:27;;;;;;;6.13;2.15;;;;;;;;;;5015010;28;20224;-81
2023/07/04 07:09:53;;;;;;;4.45;2.25;;;;;;;;;;5033504;28;20228;-81
2023/07/04 07:12:18;;;;;;;5.38;1.95;;;;;;;;;;5032504;28;20627;-84
2023/07/04 07:14:46;;;;;;;5.53;1.65;;;;;;;;;;5012146;28;20251;-83
2023/07/04 07:17:12;;;;;;;5.00;1.80;;;;;;;;;;5020585;28;20228;-80
2023/07/04 07:19:37;;;;;;;3.00;1.65;;;;;;;;;;5014131;28;20227;-81
2023/07/04 07:22:03;;;;;;;2.20;1.40;;;;;;;;;;5035713;28;20207;-78
2023/07/04 07:24:29;;;;;;;3.15;1.55;;;;;;;;;;5039028;28;20238;-79
2023/07/04 07:26:58;;;;;;;3.22;1.38;;;;;;;;;;5031387;28;20227;-79
2023/07/04 07:29:26;;;;;;;4.97;1.70;;;;;;;;;;5061405;28;20279;-83
2023/07/04 07:31:52;;;;;;;4.65;1.77;;;;;;;;;;5028593;28;20200;-81
2023/07/04 07:34:17;;;;;;;3.28;1.30;;;;;;;;;;5037180;28;20234;-82
2023/07/04 07:36:43;;;;;;;4.28;1.50;;;;;;;;;;5034953;28;20238;-78
2023/07/04 07:39:13;;;;;;;2.85;1.30;;;;;;;;;;5037382;28;20220;-83
2023/07/04 07:41:41;;;;;;;3.85;1.73;;;;;;;;;;5011345;28;20237;-82
2023/07/04 07:44:07;;;;;;;2.22;1.30;;;;;;;;;;5041746;28;20645;-82
2023/07/04 07:46:32;;;;;;;4.22;1.67;;;;;;;;;;5027697;28;20247;-81
2023/07/04 07:49:05;;;;;;;3.03;1.63;;;;;;;;;;5041827;28;20211;-81
2023/07/04 07:51:31;;;;;;;5.80;1.40;;;;;;;;;;5030196;28;20234;-81
2023/07/04 07:53:57;;;;;;;2.80;1.42;;;;;;;;;;5030525;28;20644;-84
2023/07/04 07:56:24;;;;;;;2.92;1.60;;;;;;;;;;5012687;28;20227;-82
2023/07/04 07:58:50;;;;;;;2.42;1.20;;;;;;;;;;5032196;28;20219;-80
2023/07/04 08:01:17;;;;;;;3.42;1.45;;;;;;;;;;5028135;28;20224;-79
2023/07/04 08:03:45;;;;;;;3.75;1.40;;;;;;;;;;5055244;28;20230;-77
2023/07/04 08:06:23;;;;;;;2.17;1.30;;;;;;;;;;5037704;28;20222;-79
2023/07/04 08:08:49;;;;;;;4.20;1.42;;;;;;;;;;5047720;28;20227;-79
2023/07/04 08:11:15;;;;;;;2.53;1.45;;;;;;;;;;5022055;28;20216;-80
2023/07/04 08:13:43;;;;;;;3.50;1.40;;;;;;;;;;5024389;28;20231;-81
2023/07/04 08:16:09;;;;;;;3.00;1.60;;;;;;;;;;5016868;28;20216;-81
2023/07/04 08:18:37;;;;;;;2.38;1.33;;;;;;;;;;5052259;28;20223;-84
2023/07/04 08:21:03;;;;;;;2.05;1.13;;;;;;;;;;5044300;28;20212;-81
2023/07/04 08:23:33;;;;;;;2.45;1.15;;;;;;;;;;5053812;28;20234;-81
2023/07/04 08:25:58;;;;;;;2.00;1.10;;;;;;;;;;5036661;28;20235;-82
2023/07/04 08:28:25;;;;;;;1.55;1.20;;;;;;;;;;5044444;28;20215;-82
2023/07/04 08:30:51;;;;;;;2.97;1.17;;;;;;;;;;5035535;28;20702;-81
2023/07/04 08:33:16;;;;;;;2.28;1.15;;;;;;;;;;5022005;28;20228;-84
2023/07/04 08:35:53;;;;;;;3.97;1.38;;;;;;;;;;5029506;28;20223;-81
2023/07/04 08:38:19;;;;;;;4.13;1.17;;;;;;;;;;5019447;28;20219;-78
2023/07/04 08:40:45;;;;;;;1.65;1.02;;;;;;;;;;5042081;28;20234;-84
2023/07/04 08:43:11;;;;;;;2.03;1.13;;;;;;;;;;5039668;28;20845;-81
2023/07/04 08:45:37;;;;;;;2.03;1.17;;;;;;;;;;5014708;28;20240;-84
2023/07/04 08:48:03;;;;;;;1.55;0.98;;;;;;;;;;5028799;28;20234;-81
2023/07/04 08:50:31;;;;;;;1.77;0.98;;;;;;;;;;5043083;28;20236;-82
2023/07/04 08:53:08;;;;;;;3.13;1.10;;;;;;;;;;5022906;28;20283;-81
2023/07/04 08:55:35;;;;;;;3.13;1.20;;;;;;;;;;5042149;28;20315;-81
2023/07/04 08:58:01;;;;;;;3.00;1.20;;;;;;;;;;5011014;28;20212;-81
2023/07/04 09:00:35;;;;;;;0.85;0.82;;;;;;;;;;5018590;28;20647;-82
2023/07/04 09:03:25;;;;;;;1.77;1.00;;;;;;;;;;5046805;28;20224;-78
2023/07/04 09:06:02;;;;;;;1.35;1.00;;;;;;;;;;5054499;28;20235;-83
2023/07/04 09:08:47;;;;;;;1.80;1.20;;;;;;;;;;5045302;28;20222;-81
2023/07/04 09:11:13;;;;;;;6.57;1.45;;;;;;;;;;5077835;28;20219;-80
2023/07/04 09:13:47;;;;;;;1.98;1.02;;;;;;;;;;5078614;28;20227;-82
2023/07/04 09:16:18;;;;;;;3.47;1.10;;;;;;;;;;5060471;28;20822;-78
2023/07/04 09:19:06;;;;;;;2.20;1.08;;;;;;;;;;5048186;28;20223;-82
2023/07/04 09:21:36;;;;;;;1.67;1.02;;;;;;;;;;5028088;28;20250;-84
2023/07/04 09:24:02;;;;;;;1.60;0.93;;;;;;;;;;5045102;28;20258;-83
2023/07/04 09:26:57;;;;;;;2.03;1.13;;;;;;;;;;5050438;28;20336;-85
2023/07/04 09:29:25;;;;;;;2.28;1.42;;;;;;;;;;5017830;28;20234;-82
2023/07/04 09:32:00;;;;;;;2.08;1.13;;;;;;;;;;5029268;28;20594;-83
2023/07/04 09:34:47;;;;;;;3.90;1.30;;;;;;;;;;5024538;28;20218;-80
2023/07/04 09:37:14;;;;;;;1.95;1.15;;;;;;;;;;5020414;28;20283;-81
2023/07/04 09:39:54;;;;;;;1.83;1.20;;;;;;;;;;5042588;28;20250;-81
2023/07/04 09:42:22;;;;;;;2.08;1.02;;;;;;;;;;5042820;28;20212;-80
2023/07/04 09:44:53;;;;;;;1.92;1.13;;;;;;;;;;5038354;28;20227;-75
2023/07/04 09:47:22;;;;;;;2.33;1.17;;;;;;;;;;5041769;28;20220;-81
2023/07/04 09:49:52;;;;;;;1.92;1.20;;;;;;;;;;5032371;28;20223;-79
2023/07/04 09:52:24;;;;;;;3.88;1.10;;;;;;;;;;5031224;28;20231;-81
2023/07/04 09:55:08;;;;;;;2.47;1.08;;;;;;;;;;5029944;28;20245;-83
2023/07/04 09:57:36;;;;;;;2.58;1.00;;;;;;;;;;5042810;28;20246;-80
2023/07/04 10:00:21;;;;;;;2.38;1.20;;;;;;;;;;5011504;28;20223;-80
2023/07/04 10:02:52;;;;;;;2.33;1.00;;;;;;;;;;5047061;28;20219;-80
2023/07/04 10:05:31;;;;;;;3.35;1.42;;;;;;;;;;5011179;28;20251;-83
2023/07/04 10:08:14;;;;;;;1.40;0.95;;;;;;;;;;5041190;28;20613;-80
2023/07/04 10:10:54;;;;;;;1.45;1.10;;;;;;;;;;5027298;28;20230;-82
2023/07/04 10:13:25;;;;;;;2.03;1.05;;;;;;;;;;5015036;28;20220;-79
2023/07/04 10:15:50;;;;;;;1.85;1.27;;;;;;;;;;5033898;28;20230;-84
2023/07/04 10:18:31;;;;;;;1.83;1.02;;;;;;;;;;5026934;28;20215;-83
2023/07/04 10:20:58;;;;;;;1.70;1.08;;;;;;;;;;5033791;28;20230;-83
2023/07/04 10:23:25;;;;;;;2.72;1.00;;;;;;;;;;4993627;28;20243;-80
2023/07/04 10:25:57;;;;;;;3.20;1.17;;;;;;;;;;5027116;28;20223;-81
2023/07/04 10:28:26;;;;;;;2.45;1.20;;;;;;;;;;5046885;28;20247;-81
2023/07/04 10:31:14;;;;;;;1.63;0.90;;;;;;;;;;5020326;28;20234;-81
2023/07/04 10:33:50;;;;;;;1.52;1.08;;;;;;;;;;5033278;28;20291;-82
2023/07/04 10:36:20;;;;;;;1.73;1.10;;;;;;;;;;5033231;28;20226;-85
2023/07/04 10:38:50;;;;;;;2.97;1.23;;;;;;;;;;5030085;28;20225;-83
2023/07/04 10:41:26;;;;;;;2.70;1.20;;;;;;;;;;5030456;28;20258;-80
2023/07/04 10:44:02;;;;;;;4.10;1.42;;;;;;;;;;5046000;28;21008;-82
2023/07/04 10:46:32;;;;;;;2.55;1.08;;;;;;;;;;5024032;28;20223;-80
2023/07/04 10:49:05;;;;;;;2.25;1.50;;;;;;;;;;5058537;28;20707;-84
2023/07/04 10:51:38;;;;;;;2.75;1.35;;;;;;;;;;5036622;28;20223;-83
2023/07/04 10:54:07;;;;;;;2.88;1.38;;;;;;;;;;5051455;28;20230;-83
2023/07/04 10:56:36;;;;;;;2.50;1.20;;;;;;;;;;5062888;28;20218;-84
2023/07/04 10:59:16;;;;;;;2.17;1.38;;;;;;;;;;5047103;28;20224;-82
2023/07/04 11:01:51;;;;;;;2.45;1.23;;;;;;;;;;5070325;28;20222;-80
2023/07/04 11:04:27;;;;;;;5.60;1.45;;;;;;;;;;5041590;28;20223;-82
2023/07/04 11:07:03;;;;;;;2.83;1.17;;;;;;;;;;5046673;28;20226;-83
2023/07/04 11:09:33;;;;;;;2.13;1.63;;;;;;;;;;5054598;28;20297;-81
2023/07/04 11:12:03;;;;;;;3.47;1.40;;;;;;;;;;5048014;28;20224;-83
2023/07/04 11:14:29;;;;;;;3.22;1.45;;;;;;;;;;5021080;28;20235;-81
2023/07/04 11:16:57;;;;;;;4.15;1.33;;;;;;;;;;5018671;28;20224;-84
2023/07/04 11:19:28;;;;;;;2.55;1.10;;;;;;;;;;5057293;28;20239;-79
2023/07/04 11:22:08;;;;;;;1.90;1.30;;;;;;;;;;5016800;28;20870;-83
2023/07/04 11:24:55;;;;;;;2.50;1.38;;;;;;;;;;5071920;28;20564;-81
2023/07/04 11:27:25;;;;;;;7.55;1.65;;;;;;;;;;5055684;28;20215;-81
2023/07/04 11:29:56;;;;;;;5.13;1.48;;;;;;;;;;5053795;28;20231;-80
2023/07/04 11:32:22;;;;;;;2.78;1.25;;;;;;;;;;5051538;28;20225;-82
2023/07/04 11:35:14;;;;;;;3.60;1.30;;;;;;;;;;5068083;28;20223;-84
2023/07/04 11:37:43;;;;;;;4.13;1.20;;;;;;;;;;5038013;28;20362;-81
2023/07/04 11:40:21;;;;;;;3.10;1.50;;;;;;;;;;5072258;28;20219;-84
2023/07/04 11:42:51;;;;;;;2.45;1.20;;;;;;;;;;5044837;28;20230;-83
2023/07/04 11:45:23;;;;;;;4.07;1.88;;;;;;;;;;5050688;28;20230;-82
2023/07/04 11:47:59;;;;;;;2.60;1.45;;;;;;;;;;5028981;28;20224;-81
2023/07/04 11:50:42;;;;;;;2.03;1.30;;;;;;;;;;5030646;28;20276;-81
2023/07/04 11:53:18;;;;;;;1.55;1.42;;;;;;;;;;5060634;28;20277;-82
2023/07/04 11:56:03;;;;;;;1.70;1.27;;;;;;;;;;5033086;28;20233;-81
2023/07/04 11:58:28;;;;;;;2.35;1.13;;;;;;;;;;5051842;28;20241;-80
2023/07/04 12:00:56;;;;;;;2.95;1.40;;;;;;;;;;5032000;28;20219;-83
2023/07/04 12:03:22;;;;;;;5.30;1.40;;;;;;;;;;5035057;28;20356;-84
2023/07/04 12:05:56;;;;;;;3.60;1.55;;;;;;;;;;5044335;28;20346;-82
2023/07/04 12:08:23;;;;;;;2.83;1.50;;;;;;;;;;5055932;28;20226;-80
2023/07/04 12:10:49;;;;;;;3.72;1.60;;;;;;;;;;5052347;28;20249;-79
2023/07/04 12:13:18;;;;;;;3.50;1.50;;;;;;;;;;5051921;28;20231;-81
2023/07/04 12:15:51;;;;;;;2.47;1.50;;;;;;;;;;5040429;28;20323;-83
2023/07/04 12:18:23;;;;;;;4.88;1.48;;;;;;;;;;5045165;28;20566;-82
2023/07/04 12:20:52;;;;;;;6.82;1.73;;;;;;;;;;5038036;28;20258;-83
2023/07/04 12:23:17;;;;;;;3.10;1.63;;;;;;;;;;5016327;28;20272;-80
2023/07/04 12:25:46;;;;;;;4.88;1.90;;;;;;;;;;5014276;28;20234;-83
2023/07/04 12:28:13;;;;;;;6.95;1.80;;;;;;;;;;5037318;28;20248;-81
2023/07/04 12:30:39;;;;;;;5.00;2.00;;;;;;;;;;5028460;28;20208;-80
2023/07/04 12:33:29;;;;;;;3.42;1.85;;;;;;;;;;5012362;28;20230;-82
2023/07/04 12:35:59;;;;;;;2.97;1.70;;;;;;;;;;5049154;28;20216;-81
2023/07/04 12:38:26;;;;;;;4.70;1.80;;;;;;;;;;5035557;28;20228;-80
2023/07/04 12:40:52;;;;;;;3.22;1.42;;;;;;;;;;5042192;28;20216;-81
2023/07/04 12:43:17;;;;;;;4.70;1.73;;;;;;;;;;5024375;28;20258;-79
2023/07/04 12:45:45;;;;;;;3.08;1.60;;;;;;;;;;5029489;28;20224;-82
2023/07/04 12:48:12;;;;;;;3.35;1.67;;;;;;;;;;5016843;28;20216;-80
2023/07/04 12:50:57;;;;;;;2.67;1.58;;;;;;;;;;5026139;28;20247;-82
2023/07/04 12:53:28;;;;;;;2.95;1.33;;;;;;;;;;5063595;28;20238;-81
2023/07/04 12:55:54;;;;;;;4.53;2.00;;;;;;;;;;5029785;28;20254;-83
2023/07/04 12:58:23;;;;;;;3.92;1.40;;;;;;;;;;5042959;28;20239;-81
2023/07/04 13:00:55;;;;;;;4.50;1.65;;;;;;;;;;5011050;28;20224;-80
2023/07/04 13:03:20;;;;;;;3.45;1.83;;;;;;;;;;5080453;28;20237;-85
2023/07/04 13:05:48;;;;;;;3.90;1.90;;;;;;;;;;5024156;28;20218;-84
2023/07/04 13:08:17;;;;;;;3.03;1.70;;;;;;;;;;5035413;28;20216;-80
2023/07/04 13:10:48;;;;;;;5.10;1.95;;;;;;;;;;5031801;28;20224;-79
2023/07/04 13:13:36;;;;;;;6.50;1.70;;;;;;;;;;5034312;28;20222;-80
2023/07/04 13:16:30;;;;;;;3.75;2.00;;;;;;;;;;5033781;28;20222;-81
2023/07/04 13:19:04;;;;;;;5.60;2.05;;;;;;;;;;5023714;28;20257;-84
2023/07/04 13:21:50;;;;;;;5.85;2.20;;;;;;;;;;5068602;28;20310;-84
2023/07/04 13:24:25;;;;;;;3.35;1.85;;;;;;;;;;5054585;28;20705;-81
2023/07/04 13:26:51;;;;;;;5.57;2.25;;;;;;;;;;5066733;28;20328;-81
2023/07/04 13:29:18;;;;;;;4.97;2.17;;;;;;;;;;5073338;28;20302;-82
2023/07/04 13:31:44;;;;;;;6.72;2.40;;;;;;;;;;5064704;28;20223;-84
2023/07/04 13:34:12;;;;;;;4.75;2.30;;;;;;;;;;5049627;28;20287;-81
2023/07/04 13:36:45;;;;;;;5.20;2.00;;;;;;;;;;5071993;28;20347;-80
2023/07/04 13:39:10;;;;;;;6.70;2.30;;;;;;;;;;5050557;28;20223;-82
2023/07/04 13:41:57;;;;;;;5.68;2.08;;;;;;;;;;5038218;28;20238;-79
2023/07/04 13:44:25;;;;;;;3.20;2.05;;;;;;;;;;5056595;28;20223;-78
2023/07/04 13:46:52;;;;;;;5.53;2.00;;;;;;;;;;5060026;28;20230;-83
2023/07/04 13:49:20;;;;;;;3.20;2.03;;;;;;;;;;5048571;28;20254;-81
2023/07/04 13:51:46;;;;;;;3.78;1.83;;;;;;;;;;5045529;28;20310;-82
2023/07/04 13:54:12;;;;;;;4.63;1.92;;;;;;;;;;5045112;28;20310;-81
2023/07/04 13:56:37;;;;;;;5.15;1.50;;;;;;;;;;5054289;28;20211;-84
2023/07/04 13:59:03;;;;;;;2.78;1.80;;;;;;;;;;5074144;28;20222;-80
2023/07/04 14:01:29;;;;;;;4.90;1.67;;;;;;;;;;5053185;28;20211;-84
2023/07/04 14:03:55;;;;;;;5.05;1.73;;;;;;;;;;5043772;28;20227;-79
2023/07/04 14:06:21;;;;;;;3.63;2.05;;;;;;;;;;5074087;28;20232;-79
2023/07/04 14:08:47;;;;;;;4.60;2.30;;;;;;;;;;5080201;28;20231;-80
2023/07/04 14:11:19;;;;;;;3.17;1.70;;;;;;;;;;5044847;28;20549;-80
2023/07/04 14:13:48;;;;;;;3.90;1.70;;;;;;;;;;5064708;28;20222;-78
2023/07/04 14:16:17;;;;;;;5.20;1.83;;;;;;;;;;5045270;28;20211;-80
2023/07/04 14:18:43;;;;;;;3.60;1.80;;;;;;;;;;5045152;28;20246;-81
2023/07/04 14:21:14;;;;;;;4.07;1.83;;;;;;;;;;5054940;28;20210;-79
2023/07/04 14:23:40;;;;;;;4.35;1.70;;;;;;;;;;5053594;28;20234;-80
2023/07/04 14:26:14;;;;;;;7.18;1.85;;;;;;;;;;5053528;28;20295;-81
2023/07/04 14:28:40;;;;;;;3.15;1.73;;;;;;;;;;5054349;28;20215;-82
2023/07/04 14:31:07;;;;;;;3.40;1.50;;;;;;;;;;5055408;28;20222;-83
2023/07/04 14:33:35;;;;;;;5.20;1.60;;;;;;;;;;5044231;28;20309;-83
2023/07/04 14:36:07;;;;;;;3.03;1.50;;;;;;;;;;5071787;28;20307;-80
2023/07/04 14:38:33;;;;;;;5.90;1.83;;;;;;;;;;5070347;28;20229;-79
2023/07/04 14:41:05;;;;;;;4.65;1.63;;;;;;;;;;5051431;28;20214;-80
2023/07/04 14:43:33;;;;;;;2.13;1.40;;;;;;;;;;5052313;28;20223;-81
2023/07/04 14:45:59;;;;;;;3.47;1.60;;;;;;;;;;5057846;28;20217;-82
2023/07/04 14:48:24;;;;;;;1.80;1.45;;;;;;;;;;5027779;28;20241;-80
2023/07/04 14:51:11;;;;;;;2.40;1.58;;;;;;;;;;5046782;28;20212;-82
2023/07/04 14:53:37;;;;;;;2.75;1.70;;;;;;;;;;5036416;28;20283;-81
2023/07/04 14:56:04;;;;;;;5.57;1.63;;;;;;;;;;5042026;28;20238;-81